الصفحة الرئيسية
METAR-TAF:

METAR-TAF

مطار :

بودابست, المجر

مطار بودابست فرانز ليست الدولي

دائرة عرض: 47-26N, خط طول: 019-16E, ارتفاع: 151 متر

مراقبة الطقس الحالي

تاريخ ووقت الإصدار 20 دقيقة قبل الساعة 18:00UTC
ريح 5 عقدة من الشمال الغربي
درجة الحرارة 0°درجة مئوية
الرطوبة 93%
ضغط 1025 hPa
الرؤية 10 كم أو أكثر
غيوم قليلة على ارتفاع 3900 قدم
غيوم متفرقة على ارتفاع 4700 قدم

METAR: LHBP 181800Z 32005KT 9999 FEW039 SCT047 00/M01 Q1025 NOSIG

زمن: 19:20 (18:20 UTC)

توقعات

تاريخ ووقت الإصدار 1ساعة و 5 دقيقة قبل الساعة 17:15UTC
التوقعات صالحة من18 الساعة 18 UTC إلى 19 الساعة 18 UTC
ريح 4 عقدة من الشمال/الشمال الغربي
الرؤية 10 كم أو أكثر
غيوم متفرقة على ارتفاع 4000 قدم
أصبح
من 18 الساعة 19 UTC إلى 18 الساعة 22 UTC
ريح 6 عقدة من الشمال الشرقي
الرؤية 10 كم أو أكثر
الغيوم لا تقل 1500 م ولا وجود لمزنة ركامية السحاب الأسود
أصبح
من 19 الساعة 04 UTC إلى 19 الساعة 07 UTC
ريح 11 عقدة من الشرق/الشمال الشرقي

TAF: LHBP 181715Z 1818/1918 34004KT 9999 SCT040 BECMG 1819/1822 04006KT CAVOK BECMG 1904/1907 07011KT

أرصاد الطقس والتوقعات من أكثر من 4000 مطار (تقارير الطقس للمطار METAR والتنبؤ بالطقس بالمطارTAF).

المحطات المتاحة هي النقط الصفراء والحمراء على الخريطة.

حرك المؤشر فوق النقطة لمعرفة اسم المحطة.

ثم انقر لمعرفة أرصاد وتوقعات الطقس.

لتغيير الخارطة: اضغط على الأزرار الخضراء مع رمز الصليب الأسود للتكبير. على الزر الأخضر مع شرطة للتصغير، أو على الأسهم الخضراء للخرائط المجاورة.


METAR-TAF: